Time;durP1;ratioP1;P1;durP2;ratioP2;P2;SDS_P1;SDS_P2;PMS_P1;PMS_P2;Temp;Humidity;BMP_temperature;BMP_pressure;BME280_temperature;BME280_humidity;BME280_pressure;Samples;Min_cycle;Max_cycle;Signal;HPM_P1;HPM_P2
2020/12/28 00:02:04;;;;;;;18.10;12.35;;;;;;;-0.11;78.33;95745.80;1762737;80;21484;-56
2020/12/28 00:04:31;;;;;;;15.93;11.63;;;;;;;-0.08;78.19;95745.67;1762316;80;21651;-56
2020/12/28 00:07:00;;;;;;;16.67;11.68;;;;;;;-0.08;78.41;95735.48;1763860;80;21079;-56
2020/12/28 00:09:28;;;;;;;15.98;11.10;;;;;;;-0.12;78.47;95716.53;1764767;81;21485;-55
2020/12/28 00:11:56;;;;;;;15.55;11.43;;;;;;;-0.09;78.56;95717.69;1764114;80;22071;-56
2020/12/28 00:14:26;;;;;;;14.07;10.70;;;;;;;-0.04;78.51;95700.47;1764514;80;21576;-56
2020/12/28 00:16:54;;;;;;;14.45;11.03;;;;;;;0.05;78.55;95698.80;1763630;80;21244;-57
2020/12/28 00:19:21;;;;;;;14.45;9.93;;;;;;;0.20;78.39;95689.66;1763054;80;21632;-56
2020/12/28 00:21:49;;;;;;;12.47;9.10;;;;;;;0.24;78.19;95693.71;1763563;80;21057;-56
2020/12/28 00:24:18;;;;;;;13.43;9.05;;;;;;;0.26;78.30;95692.38;1759399;81;21118;-56
2020/12/28 00:26:46;;;;;;;12.95;9.38;;;;;;;0.26;78.52;95687.27;1710834;80;26727;-57
2020/12/28 00:29:14;;;;;;;14.33;9.50;;;;;;;0.30;78.64;95690.08;1754244;81;21405;-56
2020/12/28 00:31:42;;;;;;;14.28;9.60;;;;;;;0.36;78.65;95694.89;1755308;81;21175;-56
2020/12/28 00:34:12;;;;;;;14.38;9.65;;;;;;;0.31;78.87;95697.67;1755369;81;21087;-56
2020/12/28 00:36:40;;;;;;;13.22;9.38;;;;;;;0.23;79.31;95701.00;1756062;81;21064;-57
2020/12/28 00:39:08;;;;;;;12.10;9.68;;;;;;;0.17;79.50;95710.20;1755449;81;21076;-57
2020/12/28 00:41:36;;;;;;;13.70;9.50;;;;;;;0.16;79.57;95689.39;1756223;81;23526;-57
2020/12/28 00:44:03;;;;;;;11.33;8.68;;;;;;;0.22;79.61;95692.96;1755642;80;21160;-57
2020/12/28 00:46:31;;;;;;;12.80;9.30;;;;;;;0.27;79.47;95683.83;1755899;81;21483;-58
2020/12/28 00:48:59;;;;;;;12.58;9.08;;;;;;;0.27;79.42;95678.27;1755135;80;21497;-55
2020/12/28 00:51:26;;;;;;;12.95;9.90;;;;;;;0.30;79.52;95678.59;1756107;80;21665;-56
2020/12/28 00:53:54;;;;;;;12.43;8.75;;;;;;;0.30;79.50;95669.20;1756060;81;21219;-56
2020/12/28 00:56:23;;;;;;;12.58;9.08;;;;;;;0.38;79.55;95648.89;1756009;80;21544;-57
2020/12/28 00:58:52;;;;;;;11.22;9.15;;;;;;;0.45;79.36;95652.38;1756588;80;21465;-57
2020/12/28 01:01:20;;;;;;;12.13;9.38;;;;;;;0.48;79.21;95650.15;1757769;80;21064;-56
2020/12/28 01:03:48;;;;;;;12.45;9.95;;;;;;;0.46;79.11;95656.59;1755227;81;21085;-56
2020/12/28 01:06:33;;;;;;;11.60;8.70;;;;;;;0.45;78.94;95656.20;1753502;80;21206;-56
2020/12/28 01:09:11;;;;;;;12.80;9.90;;;;;;;0.46;79.01;95628.52;1873587;76;22250;-56
2020/12/28 01:11:42;;;;;;;13.85;10.08;;;;;;;0.44;79.05;95619.27;1835730;78;21070;-57
2020/12/28 01:14:11;;;;;;;14.35;8.85;;;;;;;0.50;78.76;95626.65;1812581;78;21414;-56
2020/12/28 01:16:39;;;;;;;11.33;8.05;;;;;;;0.51;78.73;95617.64;1815097;77;21010;-56
2020/12/28 01:19:07;;;;;;;11.93;8.53;;;;;;;0.49;78.77;95610.95;1821294;78;21543;-57
2020/12/28 01:21:36;;;;;;;13.58;9.53;;;;;;;0.48;78.91;95599.09;1817185;78;21035;-56
2020/12/28 01:24:04;;;;;;;13.38;9.33;;;;;;;0.48;79.08;95589.71;1810999;78;21661;-56
2020/12/28 01:26:32;;;;;;;11.65;8.05;;;;;;;0.58;79.06;95585.00;1836471;78;23723;-56
2020/12/28 01:29:01;;;;;;;9.93;7.50;;;;;;;0.67;79.15;95588.84;1811153;78;20917;-56
2020/12/28 01:31:30;;;;;;;9.78;6.97;;;;;;;0.69;79.19;95585.75;1833643;77;21154;-56
2020/12/28 01:34:03;;;;;;;10.98;7.78;;;;;;;0.73;79.26;95572.77;1810070;78;21154;-56
2020/12/28 01:36:33;;;;;;;9.55;7.53;;;;;;;0.83;79.14;95579.55;1811506;78;21570;-56
2020/12/28 01:39:02;;;;;;;8.10;6.20;;;;;;;0.86;79.03;95571.73;1810606;78;21197;-56
2020/12/28 01:41:31;;;;;;;8.63;6.80;;;;;;;0.91;79.06;95558.29;1819040;78;21063;-58
2020/12/28 01:43:59;;;;;;;8.73;6.42;;;;;;;0.97;78.72;95555.06;1808877;78;21477;-56
2020/12/28 01:46:30;;;;;;;7.65;6.28;;;;;;;0.96;78.81;95555.52;1809313;78;21504;-56
2020/12/28 01:48:58;;;;;;;7.15;6.40;;;;;;;0.97;79.06;95553.78;1813716;78;21162;-56
2020/12/28 01:51:26;;;;;;;6.83;5.87;;;;;;;1.00;79.17;95546.79;1814235;78;21388;-57
2020/12/28 01:53:55;;;;;;;7.55;5.60;;;;;;;1.05;79.40;95549.13;1808215;78;24623;-57
2020/12/28 01:56:36;;;;;;;6.23;5.43;;;;;;;1.05;79.44;95546.56;1854106;76;22709;-57
2020/12/28 01:59:04;;;;;;;5.80;5.20;;;;;;;0.98;80.21;95556.27;1841015;78;21488;-56
2020/12/28 02:01:37;;;;;;;5.25;4.75;;;;;;;0.98;80.21;95556.27;1816456;78;21378;-56
2020/12/28 02:04:05;;;;;;;6.97;5.25;;;;;;;0.94;80.47;95553.50;1806220;78;21087;-57
2020/12/28 02:06:35;;;;;;;5.20;4.60;;;;;;;0.95;80.50;95540.27;1810371;78;21078;-56
2020/12/28 02:09:04;;;;;;;6.25;4.65;;;;;;;0.96;80.63;95526.61;1818173;78;21035;-56
2020/12/28 02:11:33;;;;;;;5.62;4.33;;;;;;;0.93;80.93;95517.35;1817219;78;21034;-56
2020/12/28 02:14:02;;;;;;;5.50;4.42;;;;;;;0.91;80.90;95514.05;1833120;78;21342;-56
2020/12/28 02:16:42;;;;;;;5.90;4.60;;;;;;;1.02;81.00;95522.45;1888598;75;22086;-56
2020/12/28 02:19:15;;;;;;;5.08;4.50;;;;;;;0.95;80.99;95517.28;1771977;80;21216;-57
2020/12/28 02:21:44;;;;;;;4.65;3.98;;;;;;;0.94;81.05;95527.11;1819017;77;21828;-56
2020/12/28 02:24:16;;;;;;;4.85;4.12;;;;;;;0.91;81.16;95513.59;1820975;77;21407;-56
2020/12/28 02:26:45;;;;;;;5.55;4.70;;;;;;;0.91;81.15;95520.44;1843310;77;21038;-56
2020/12/28 02:29:14;;;;;;;6.28;4.83;;;;;;;0.91;81.15;95498.73;1798557;77;21212;-56
2020/12/28 02:31:42;;;;;;;5.45;4.25;;;;;;;0.92;81.26;95500.36;1826703;77;21473;-55
2020/12/28 02:34:20;;;;;;;5.77;5.10;;;;;;;1.12;80.89;95512.59;1864374;76;22190;-57
2020/12/28 02:36:49;;;;;;;6.10;5.20;;;;;;;1.14;80.54;95486.08;1814494;78;21487;-57
2020/12/28 02:39:17;;;;;;;7.00;4.87;;;;;;;1.14;80.54;95486.08;1808697;78;21207;-56
2020/12/28 02:41:45;;;;;;;8.13;5.58;;;;;;;1.13;80.33;95490.80;1820321;78;21142;-56
2020/12/28 02:44:31;;;;;;;6.85;5.95;;;;;;;1.00;80.36;95475.27;1819906;78;21059;-56
2020/12/28 02:47:18;;;;;;;7.62;5.50;;;;;;;0.99;80.34;95475.38;1815039;78;21114;-57
2020/12/28 02:50:04;;;;;;;7.37;6.28;;;;;;;0.99;80.34;95475.38;1797547;78;21551;-56
2020/12/28 02:52:51;;;;;;;8.23;5.92;;;;;;;0.97;80.23;95463.10;1804144;79;21201;-56
2020/12/28 02:55:36;;;;;;;9.15;6.90;;;;;;;0.97;80.20;95463.10;1800730;79;21059;-56
2020/12/28 02:58:17;;;;;;;9.73;6.50;;;;;;;0.98;80.09;95463.03;1871136;75;22639;-56
2020/12/28 03:01:05;;;;;;;6.75;6.03;;;;;;;0.93;80.07;95456.52;1838177;78;21023;-55
2020/12/28 03:03:52;;;;;;;9.38;7.10;;;;;;;0.90;80.18;95451.09;1833708;78;22097;-56
2020/12/28 03:06:38;;;;;;;5.97;5.37;;;;;;;0.95;80.19;95455.98;1817118;78;21067;-55
2020/12/28 03:09:24;;;;;;;8.68;5.75;;;;;;;1.07;80.03;95446.43;1809048;78;21587;-56
2020/12/28 03:12:11;;;;;;;7.97;6.00;;;;;;;1.11;79.86;95447.91;1824327;78;21114;-56
2020/12/28 03:14:58;;;;;;;7.87;6.80;;;;;;;1.16;79.71;95453.60;1830228;76;22158;-57
2020/12/28 03:17:44;;;;;;;8.40;6.08;;;;;;;1.04;79.69;95453.78;1783500;79;21554;-57
2020/12/28 03:20:29;;;;;;;7.72;5.95;;;;;;;1.00;79.83;95443.34;1809997;79;21433;-57
2020/12/28 03:23:15;;;;;;;8.50;6.17;;;;;;;1.05;79.94;95444.38;1787064;79;20949;-57
2020/12/28 03:26:03;;;;;;;6.62;5.58;;;;;;;1.02;79.82;95436.88;1785158;79;20992;-57
2020/12/28 03:28:52;;;;;;;7.00;5.47;;;;;;;1.02;80.54;95436.88;1869377;75;22766;-57
2020/12/28 03:31:38;;;;;;;6.75;5.55;;;;;;;0.91;80.50;95453.58;1827168;78;21113;-56
2020/12/28 03:34:28;;;;;;;6.17;5.00;;;;;;;0.94;81.06;95438.56;1878586;74;23059;-56
2020/12/28 03:37:10;;;;;;;5.78;4.70;;;;;;;0.85;81.33;95445.40;1797442;76;21177;-56
2020/12/28 03:39:56;;;;;;;5.03;4.33;;;;;;;0.88;81.73;95442.70;1846502;77;22024;-56
2020/12/28 03:42:42;;;;;;;5.22;4.30;;;;;;;0.92;82.10;95436.52;1852444;75;21023;-55
2020/12/28 03:45:29;;;;;;;5.08;4.08;;;;;;;0.92;82.10;95436.52;1867242;76;21042;-56
2020/12/28 03:48:15;;;;;;;4.92;4.15;;;;;;;0.90;82.54;95428.11;1850253;77;21188;-55
2020/12/28 03:51:02;;;;;;;4.12;3.55;;;;;;;0.82;83.20;95419.58;1857597;76;21097;-55
2020/12/28 03:53:47;;;;;;;4.12;3.35;;;;;;;0.83;83.40;95419.94;1852845;77;21477;-56
2020/12/28 03:56:33;;;;;;;4.85;3.67;;;;;;;0.83;83.40;95419.94;1806031;77;20978;-58
2020/12/28 03:59:20;;;;;;;4.33;3.40;;;;;;;0.91;83.33;95408.88;1829706;77;21197;-56
2020/12/28 04:02:06;;;;;;;3.30;3.00;;;;;;;1.06;82.77;95412.84;1812068;77;21058;-55
2020/12/28 04:04:50;;;;;;;4.87;3.57;;;;;;;1.13;82.79;95414.16;1879215;76;23607;-56
2020/12/28 04:07:20;;;;;;;4.17;3.77;;;;;;;1.11;82.57;95391.70;1811911;77;21065;-56
2020/12/28 04:10:05;;;;;;;3.87;3.12;;;;;;;1.11;82.57;95391.70;1777932;80;21014;-56
2020/12/28 04:13:04;;;;;;;3.73;3.43;;;;;;;1.20;82.49;95406.56;1886830;76;22836;-56
2020/12/28 04:15:32;;;;;;;4.03;3.62;;;;;;;1.22;81.90;95390.69;1821693;77;21105;-56
2020/12/28 04:17:59;;;;;;;4.58;3.67;;;;;;;1.22;81.90;95390.69;1784227;79;21385;-56
2020/12/28 04:20:27;;;;;;;3.60;3.30;;;;;;;1.28;81.52;95400.59;1749221;80;20947;-56
2020/12/28 04:22:55;;;;;;;4.55;3.37;;;;;;;1.28;81.52;95400.59;1775260;80;21081;-55
2020/12/28 04:25:23;;;;;;;3.62;3.22;;;;;;;1.35;81.60;95401.09;1829401;77;20987;-56
2020/12/28 04:27:51;;;;;;;4.78;3.55;;;;;;;1.36;81.61;95415.50;1817219;77;21556;-56
2020/12/28 04:30:20;;;;;;;4.30;3.87;;;;;;;1.39;81.67;95416.62;1823272;77;21268;-55
2020/12/28 04:32:48;;;;;;;2.70;2.50;;;;;;;1.42;81.50;95404.96;1839054;78;21105;-56
2020/12/28 04:35:17;;;;;;;2.80;2.60;;;;;;;1.48;81.49;95406.38;1826744;77;21319;-56
2020/12/28 04:37:44;;;;;;;3.65;3.35;;;;;;;1.46;81.50;95415.41;1821148;77;21080;-56
2020/12/28 04:40:13;;;;;;;3.72;2.92;;;;;;;1.42;81.64;95425.41;1821790;77;21112;-56
2020/12/28 04:42:42;;;;;;;3.47;3.17;;;;;;;1.40;81.73;95407.25;1819708;77;21207;-56
2020/12/28 04:45:10;;;;;;;2.95;2.65;;;;;;;1.41;81.70;95400.74;1779444;79;21632;-56
2020/12/28 04:47:38;;;;;;;3.52;3.17;;;;;;;1.42;81.78;95405.42;1838991;78;21050;-56
2020/12/28 04:50:06;;;;;;;3.37;3.00;;;;;;;1.41;81.63;95399.93;1841974;77;21033;-56
2020/12/28 04:52:35;;;;;;;3.25;2.95;;;;;;;1.39;81.83;95407.68;1818674;78;21546;-55
2020/12/28 04:55:04;;;;;;;2.90;2.60;;;;;;;1.41;81.85;95406.32;1806463;79;21196;-55
2020/12/28 04:57:32;;;;;;;2.70;2.50;;;;;;;1.49;81.96;95391.86;1814632;79;21097;-55
2020/12/28 05:00:02;;;;;;;3.50;3.10;;;;;;;1.54;81.91;95393.25;1796719;79;21101;-56
2020/12/28 05:02:30;;;;;;;2.95;2.67;;;;;;;1.56;81.86;95400.84;1782869;80;21156;-55
2020/12/28 05:05:07;;;;;;;2.50;2.30;;;;;;;1.55;81.79;95414.55;1801727;79;21045;-55
2020/12/28 05:07:37;;;;;;;2.47;2.27;;;;;;;1.52;81.81;95401.46;1789105;79;20919;-55
2020/12/28 05:10:04;;;;;;;2.80;2.60;;;;;;;1.49;82.07;95383.73;1814276;79;21345;-56
2020/12/28 05:12:32;;;;;;;2.70;2.50;;;;;;;1.43;82.20;95396.83;1814791;79;21128;-56
2020/12/28 05:15:07;;;;;;;2.33;2.12;;;;;;;1.41;82.42;95389.70;1799093;79;21168;-56
2020/12/28 05:17:35;;;;;;;2.42;2.22;;;;;;;1.46;82.50;95393.69;1782670;80;21065;-56
2020/12/28 05:20:03;;;;;;;3.00;2.70;;;;;;;1.43;82.54;95396.83;1806590;79;21193;-55
2020/12/28 05:22:32;;;;;;;2.47;2.27;;;;;;;1.38;82.60;95395.83;1770181;79;21116;-55
2020/12/28 05:25:00;;;;;;;2.83;2.50;;;;;;;1.39;82.86;95381.30;1764331;79;21191;-55
2020/12/28 05:27:29;;;;;;;2.50;2.30;;;;;;;1.41;82.80;95367.52;1787770;79;21756;-56
2020/12/28 05:29:57;;;;;;;2.42;2.22;;;;;;;1.41;83.21;95388.42;1780432;80;21072;-56
2020/12/28 05:32:24;;;;;;;2.22;2.02;;;;;;;1.41;83.21;95388.42;1782312;79;21120;-56
2020/12/28 05:34:52;;;;;;;1.98;1.87;;;;;;;1.35;83.42;95372.98;1774090;78;21130;-56
2020/12/28 05:37:20;;;;;;;2.37;2.10;;;;;;;1.33;83.52;95363.27;1772978;81;21256;-56
2020/12/28 05:39:48;;;;;;;2.42;2.22;;;;;;;1.31;83.77;95356.14;1781015;79;21505;-57
2020/12/28 05:42:15;;;;;;;2.15;1.90;;;;;;;1.28;84.01;95371.64;1748397;80;21050;-56
2020/12/28 05:44:44;;;;;;;2.35;2.15;;;;;;;1.26;84.14;95378.57;1780869;79;21264;-56
2020/12/28 05:47:14;;;;;;;1.77;1.67;;;;;;;1.29;83.96;95376.67;1778703;79;21153;-56
2020/12/28 05:49:44;;;;;;;2.30;2.10;;;;;;;1.32;83.85;95369.31;1784819;79;21144;-57
2020/12/28 05:52:15;;;;;;;2.52;2.33;;;;;;;1.32;83.85;95369.31;1805581;79;21144;-56
2020/12/28 05:54:43;;;;;;;2.45;2.25;;;;;;;1.36;84.06;95385.30;1803291;79;21172;-56
2020/12/28 05:57:11;;;;;;;2.60;2.40;;;;;;;1.36;84.06;95385.30;1784934;79;21263;-55
2020/12/28 05:59:38;;;;;;;2.25;2.02;;;;;;;1.32;84.04;95394.86;1787618;79;21500;-55
2020/12/28 06:02:09;;;;;;;2.45;2.08;;;;;;;1.28;84.17;95389.09;1785378;79;21497;-57
2020/12/28 06:04:38;;;;;;;2.45;2.25;;;;;;;1.33;84.17;95387.55;1754144;80;21060;-56
2020/12/28 06:07:05;;;;;;;2.42;2.22;;;;;;;1.33;84.17;95387.55;1782096;80;21077;-56
2020/12/28 06:09:33;;;;;;;2.10;1.90;;;;;;;1.40;84.09;95400.39;1791513;79;23366;-56
2020/12/28 06:12:06;;;;;;;2.45;2.25;;;;;;;1.39;83.85;95405.13;1814845;78;21207;-56
2020/12/28 06:14:38;;;;;;;2.60;2.40;;;;;;;1.39;83.85;95405.13;1798600;79;21112;-56
2020/12/28 06:17:10;;;;;;;2.55;2.35;;;;;;;1.35;84.17;95402.38;1809872;79;21057;-57
2020/12/28 06:19:42;;;;;;;3.20;2.70;;;;;;;1.27;84.10;95387.44;1785406;80;21072;-56
2020/12/28 06:22:23;;;;;;;2.47;2.27;;;;;;;1.31;84.21;95388.55;1797908;79;22098;-56
2020/12/28 06:25:08;;;;;;;2.15;2.00;;;;;;;1.38;84.19;95376.66;1793635;79;21147;-56
2020/12/28 06:27:43;;;;;;;2.20;2.02;;;;;;;1.38;84.19;95376.66;1787494;79;21466;-56
2020/12/28 06:30:19;;;;;;;3.58;2.80;;;;;;;1.40;84.24;95387.61;1783824;79;21180;-56
2020/12/28 06:33:04;;;;;;;2.50;2.30;;;;;;;1.39;84.20;95382.58;1800618;79;21069;-56
2020/12/28 06:35:32;;;;;;;2.30;2.10;;;;;;;1.41;84.21;95404.58;1813131;79;21209;-56
2020/12/28 06:38:01;;;;;;;2.60;2.40;;;;;;;1.41;84.24;95403.30;1817759;78;21530;-56
2020/12/28 06:40:38;;;;;;;2.58;2.37;;;;;;;1.53;84.08;95392.90;1817726;78;21305;-55
2020/12/28 06:43:15;;;;;;;2.70;2.50;;;;;;;1.66;83.75;95372.58;1817569;79;21509;-56
2020/12/28 06:45:45;;;;;;;2.17;2.08;;;;;;;1.66;83.75;95372.58;1817564;78;21517;-55
2020/12/28 06:48:20;;;;;;;1.95;1.85;;;;;;;1.80;83.09;95387.18;1802441;78;21454;-56
2020/12/28 06:50:53;;;;;;;2.52;2.33;;;;;;;1.80;83.09;95387.18;1810408;78;21281;-55
2020/12/28 06:53:24;;;;;;;2.50;2.30;;;;;;;1.82;82.79;95375.13;1785151;79;21188;-56
2020/12/28 06:55:52;;;;;;;2.40;2.20;;;;;;;1.79;82.72;95379.12;1785947;79;21121;-55
2020/12/28 06:58:20;;;;;;;2.47;2.27;;;;;;;1.78;82.66;95377.50;1785652;80;21516;-55
2020/12/28 07:00:48;;;;;;;2.90;2.40;;;;;;;1.83;82.65;95380.63;1786686;79;21218;-55
2020/12/28 07:03:17;;;;;;;2.35;2.15;;;;;;;1.83;82.42;95372.95;1767193;79;21081;-56
2020/12/28 07:05:45;;;;;;;3.17;2.35;;;;;;;1.75;82.55;95376.38;1808909;79;21105;-56
2020/12/28 07:08:12;;;;;;;2.42;2.22;;;;;;;1.81;82.62;95392.68;1805300;79;21101;-56
2020/12/28 07:10:40;;;;;;;2.95;2.62;;;;;;;1.81;82.62;95392.68;1785536;79;21969;-56
2020/12/28 07:13:08;;;;;;;2.60;2.40;;;;;;;1.80;82.46;95402.53;1786443;79;21550;-56
2020/12/28 07:15:36;;;;;;;3.70;2.77;;;;;;;1.75;82.60;95361.04;1787178;80;21081;-56
2020/12/28 07:18:08;;;;;;;2.87;2.60;;;;;;;1.82;82.77;95372.56;1791405;79;21105;-56
2020/12/28 07:20:36;;;;;;;2.70;2.50;;;;;;;1.85;82.52;95367.28;1811413;79;21056;-56
2020/12/28 07:23:03;;;;;;;8.53;4.65;;;;;;;1.80;82.57;95372.66;1814218;79;21101;-57
2020/12/28 07:25:31;;;;;;;2.70;2.50;;;;;;;1.86;83.86;95379.61;1806151;78;21204;-56
2020/12/28 07:27:59;;;;;;;2.87;2.50;;;;;;;2.09;82.75;95383.02;1814279;79;21049;-56
2020/12/28 07:30:27;;;;;;;2.50;2.30;;;;;;;2.14;82.17;95391.25;1809638;79;21486;-56
2020/12/28 07:32:58;;;;;;;3.12;2.83;;;;;;;2.06;81.98;95382.36;1787635;79;21525;-57
2020/12/28 07:35:28;;;;;;;3.12;2.50;;;;;;;1.91;82.18;95381.02;1789194;79;21064;-55
2020/12/28 07:37:57;;;;;;;7.20;3.20;;;;;;;1.90;82.56;95379.83;1781292;79;21357;-57
2020/12/28 07:40:24;;;;;;;3.47;2.87;;;;;;;1.84;82.81;95386.94;1698135;80;21598;-55
2020/12/28 07:42:52;;;;;;;3.27;2.37;;;;;;;1.79;82.93;95381.25;1786064;79;21114;-56
2020/12/28 07:45:21;;;;;;;14.93;3.00;;;;;;;1.83;82.94;95378.88;1782099;80;21129;-55
2020/12/28 07:47:53;;;;;;;5.43;2.37;;;;;;;1.90;82.91;95383.66;1782213;80;21081;-57
2020/12/28 07:50:22;;;;;;;9.78;3.90;;;;;;;1.90;82.72;95377.27;1787716;78;21377;-56
2020/12/28 07:53:00;;;;;;;13.68;3.70;;;;;;;1.87;82.79;95374.41;1783532;79;21086;-57
2020/12/28 07:55:32;;;;;;;5.50;3.12;;;;;;;1.98;82.92;95367.44;1765376;81;21188;-56
2020/12/28 07:58:19;;;;;;;6.47;2.60;;;;;;;2.14;82.68;95370.78;1764672;81;21173;-56
2020/12/28 08:00:49;;;;;;;4.00;3.05;;;;;;;2.28;82.20;95366.14;1725105;82;21646;-56
2020/12/28 08:03:34;;;;;;;3.10;2.75;;;;;;;2.37;81.75;95369.93;1744551;81;21355;-57
2020/12/28 08:06:09;;;;;;;2.92;2.67;;;;;;;2.38;81.27;95369.00;1744476;82;21143;-57
2020/12/28 08:08:40;;;;;;;3.58;3.27;;;;;;;2.44;81.18;95372.48;1740673;81;21066;-55
2020/12/28 08:11:08;;;;;;;3.83;3.52;;;;;;;2.57;81.07;95371.33;1740892;82;21120;-57
2020/12/28 08:13:36;;;;;;;4.37;3.98;;;;;;;2.74;80.76;95369.86;1740522;82;21138;-56
2020/12/28 08:16:13;;;;;;;4.75;4.25;;;;;;;2.93;79.81;95366.23;1810110;79;21190;-57
2020/12/28 08:18:50;;;;;;;7.45;5.33;;;;;;;2.92;79.14;95364.11;1809098;78;21141;-57
2020/12/28 08:21:18;;;;;;;9.60;6.33;;;;;;;2.98;78.69;95362.94;1802311;79;21164;-57
2020/12/28 08:23:54;;;;;;;5.78;4.95;;;;;;;3.14;78.49;95352.56;1773342;79;21062;-57
2020/12/28 08:26:28;;;;;;;5.80;4.78;;;;;;;3.57;77.94;95351.22;1790889;79;21129;-57
2020/12/28 08:29:00;;;;;;;5.03;4.53;;;;;;;4.27;76.50;95348.90;1772911;80;21335;-56
2020/12/28 08:31:36;;;;;;;5.35;4.37;;;;;;;4.67;73.80;95346.28;1796244;79;21069;-56
2020/12/28 08:34:11;;;;;;;3.83;3.42;;;;;;;4.76;73.16;95358.97;1775991;80;21140;-55
2020/12/28 08:36:53;;;;;;;3.75;3.45;;;;;;;4.60;72.85;95347.16;1739784;80;21059;-55
2020/12/28 08:39:24;;;;;;;7.58;4.50;;;;;;;4.44;72.39;95346.53;1763121;80;21571;-55
2020/12/28 08:41:56;;;;;;;16.85;5.90;;;;;;;3.76;73.72;95344.45;1763196;81;21385;-56
2020/12/28 08:44:37;;;;;;;5.00;3.77;;;;;;;3.25;75.41;95337.34;1763029;81;21565;-56
2020/12/28 08:47:11;;;;;;;7.35;4.40;;;;;;;3.07;76.73;95330.33;1763186;81;21056;-56
2020/12/28 08:49:41;;;;;;;3.85;3.45;;;;;;;2.81;77.60;95328.05;1763107;81;21053;-56
2020/12/28 08:52:19;;;;;;;5.20;4.70;;;;;;;2.71;78.11;95333.38;1791850;79;21057;-56
2020/12/28 08:54:58;;;;;;;4.90;4.40;;;;;;;2.80;78.48;95342.27;1803613;79;21709;-56
2020/12/28 08:57:28;;;;;;;6.03;4.35;;;;;;;2.71;78.60;95348.30;1803577;79;21090;-56
2020/12/28 08:59:59;;;;;;;17.60;6.15;;;;;;;2.58;79.06;95345.63;1761384;80;21065;-56
2020/12/28 09:02:27;;;;;;;12.53;5.00;;;;;;;2.50;79.55;95342.70;1755089;80;21040;-56
2020/12/28 09:04:55;;;;;;;18.77;7.30;;;;;;;2.49;79.70;95338.95;1780877;80;21105;-56
2020/12/28 09:07:23;;;;;;;13.13;5.72;;;;;;;2.55;79.80;95342.44;1789254;79;21818;-56
2020/12/28 09:09:51;;;;;;;13.38;5.97;;;;;;;2.63;79.50;95314.64;1777428;79;21117;-56
2020/12/28 09:12:20;;;;;;;13.15;5.33;;;;;;;2.67;79.46;95311.43;1803615;79;21058;-56
2020/12/28 09:14:47;;;;;;;13.10;5.85;;;;;;;2.63;79.48;95317.20;1803677;78;21062;-56
2020/12/28 09:17:18;;;;;;;16.35;6.22;;;;;;;2.52;79.85;95310.14;1803633;79;21467;-56
2020/12/28 09:19:46;;;;;;;25.52;8.60;;;;;;;2.52;80.12;95299.89;1803746;79;21360;-56
2020/12/28 09:22:13;;;;;;;15.40;5.30;;;;;;;2.66;80.27;95300.81;1785797;79;21211;-56
2020/12/28 09:24:41;;;;;;;17.60;6.80;;;;;;;2.99;79.90;95300.97;1814114;79;21125;-56
2020/12/28 09:27:09;;;;;;;34.20;8.55;;;;;;;3.23;79.47;95302.49;1814213;79;21477;-56
2020/12/28 09:29:37;;;;;;;9.08;5.45;;;;;;;3.54;79.07;95289.85;1814144;79;21065;-55
2020/12/28 09:32:05;;;;;;;7.55;5.65;;;;;;;3.92;77.99;95285.75;1785224;79;22359;-56
2020/12/28 09:34:33;;;;;;;9.38;5.35;;;;;;;4.18;76.12;95277.16;1814052;79;21137;-56
2020/12/28 09:37:05;;;;;;;10.32;5.12;;;;;;;4.26;75.65;95271.97;1787524;78;21193;-57
2020/12/28 09:39:33;;;;;;;13.05;6.70;;;;;;;4.44;75.17;95266.91;1800051;79;21125;-57
2020/12/28 09:42:01;;;;;;;20.10;6.45;;;;;;;4.56;74.15;95265.25;1751998;79;21105;-56
2020/12/28 09:44:29;;;;;;;25.60;7.47;;;;;;;4.54;74.21;95269.21;1803567;79;21507;-57
2020/12/28 09:46:58;;;;;;;18.25;7.00;;;;;;;4.68;74.23;95272.59;1803755;79;21074;-57
2020/12/28 09:49:26;;;;;;;17.50;6.70;;;;;;;5.24;73.70;95264.44;1803734;79;21065;-55
2020/12/28 09:51:54;;;;;;;;;;;;;;;5.90;71.90;95263.11;1788306;79;21145;-56
2020/12/28 09:54:23;;;;;;;9.45;5.40;;;;;;;6.75;70.13;95254.23;1784247;79;21582;-56
2020/12/28 09:56:53;;;;;;;7.22;4.75;;;;;;;7.98;66.59;95250.66;1777025;79;21330;-56
2020/12/28 09:59:24;;;;;;;6.20;5.00;;;;;;;9.28;62.84;95237.59;1777100;79;21208;-57
2020/12/28 10:01:52;;;;;;;15.38;5.55;;;;;;;10.22;59.58;95231.06;1776984;79;21146;-57
2020/12/28 10:04:19;;;;;;;13.65;7.80;;;;;;;10.89;56.73;95230.55;1754215;80;21081;-57
2020/12/28 10:06:47;;;;;;;23.33;7.00;;;;;;;11.08;54.20;95227.51;1799572;79;21078;-56
2020/12/28 10:09:16;;;;;;;19.50;5.75;;;;;;;10.82;54.52;95226.87;1814245;78;22355;-57
2020/12/28 10:11:43;;;;;;;6.53;4.70;;;;;;;10.76;55.28;95217.89;1814043;79;21141;-57
2020/12/28 10:14:12;;;;;;;5.00;4.47;;;;;;;11.10;54.59;95217.33;1810294;78;21148;-58
2020/12/28 10:16:40;;;;;;;14.17;6.07;;;;;;;11.40;53.17;95216.18;1804130;79;21053;-56
2020/12/28 10:19:08;;;;;;;8.63;5.07;;;;;;;11.72;52.64;95206.24;1804120;79;21073;-57
2020/12/28 10:21:37;;;;;;;9.88;5.35;;;;;;;12.55;52.14;95208.97;1807311;79;21367;-56
2020/12/28 10:24:05;;;;;;;14.00;6.20;;;;;;;13.57;49.65;95209.88;1817183;78;21136;-57
2020/12/28 10:26:33;;;;;;;5.43;4.60;;;;;;;13.82;47.23;95198.17;1817443;79;21128;-57
2020/12/28 10:29:00;;;;;;;5.10;4.40;;;;;;;13.66;47.86;95193.75;1798999;79;21162;-58
2020/12/28 10:31:28;;;;;;;10.20;4.53;;;;;;;14.08;46.89;95179.72;1775985;80;21069;-58
2020/12/28 10:33:56;;;;;;;4.95;4.25;;;;;;;14.31;46.35;95167.64;1750083;80;21463;-56
2020/12/28 10:36:26;;;;;;;10.57;5.47;;;;;;;14.59;45.02;95174.25;1786834;79;21179;-56
2020/12/28 10:41:34;;;;;;;17.67;6.60;;;;;;;13.74;46.24;95148.95;1888633;76;22446;-57
2020/12/28 10:44:02;;;;;;;5.70;4.50;;;;;;;13.51;47.16;95146.67;1775561;80;21062;-58
2020/12/28 10:46:36;;;;;;;4.28;3.87;;;;;;;13.48;46.70;95137.87;1849976;77;22220;-55
2020/12/28 10:49:05;;;;;;;6.50;3.95;;;;;;;12.83;48.03;95147.15;1849841;77;20934;-57
2020/12/28 10:51:32;;;;;;;;;;;;;;;12.30;49.79;95155.04;1836262;77;20923;-57
2020/12/28 10:54:00;;;;;;;5.05;3.55;;;;;;;11.96;50.72;95140.69;1796889;79;21392;-57
2020/12/28 10:56:29;;;;;;;5.55;4.40;;;;;;;11.99;51.17;95142.15;1796946;79;20993;-57
2020/12/28 10:58:57;;;;;;;3.95;3.52;;;;;;;12.23;50.58;95124.59;1797080;79;21353;-55
2020/12/28 11:01:27;;;;;;;;;;;;;;;12.25;50.53;95127.38;1799598;78;21505;-55
2020/12/28 11:03:55;;;;;;;7.85;4.20;;;;;;;11.65;51.55;95127.28;1787129;79;20132;-57
2020/12/28 11:06:23;;;;;;;11.57;4.55;;;;;;;10.74;54.14;95124.29;1796733;79;21036;-57
2020/12/28 11:08:51;;;;;;;6.20;4.05;;;;;;;9.92;57.02;95127.94;1780613;80;21064;-57
2020/12/28 11:11:21;;;;;;;20.72;5.75;;;;;;;9.28;58.72;95127.59;1796896;78;22279;-56
2020/12/28 11:13:51;;;;;;;6.70;4.15;;;;;;;8.64;61.41;95123.69;1796848;79;21143;-56
2020/12/28 11:16:26;;;;;;;;;;;;;;;8.13;63.11;95122.80;1783070;79;21144;-56
2020/12/28 11:18:55;;;;;;;10.40;5.40;;;;;;;7.83;64.72;95115.38;1759301;81;20302;-57
2020/12/28 11:21:24;;;;;;;31.60;8.53;;;;;;;7.72;65.62;95106.42;1783487;80;21017;-56
2020/12/28 11:23:59;;;;;;;21.25;8.53;;;;;;;7.66;65.80;95103.85;1747933;82;21388;-57
2020/12/28 11:26:31;;;;;;;11.60;5.85;;;;;;;7.52;66.48;95100.32;1796804;79;21158;-55
2020/12/28 11:29:00;;;;;;;5.00;4.45;;;;;;;7.43;66.65;95101.88;1780579;80;21099;-56
2020/12/28 11:31:27;;;;;;;7.28;4.78;;;;;;;7.43;66.62;95107.52;1796967;78;21159;-56
2020/12/28 11:33:55;;;;;;;10.70;4.58;;;;;;;7.43;67.18;95104.45;1780457;80;21041;-56
2020/12/28 11:36:23;;;;;;;51.23;12.80;;;;;;;7.44;67.45;95100.94;1796810;79;21407;-56
2020/12/28 11:38:51;;;;;;;25.05;7.87;;;;;;;7.41;67.27;95105.06;1780570;80;21060;-56
2020/12/28 11:41:19;;;;;;;22.22;6.20;;;;;;;7.28;67.90;95094.91;1796753;78;21496;-59
2020/12/28 11:43:47;;;;;;;20.08;6.95;;;;;;;7.08;68.91;95102.98;1752044;80;21123;-56
2020/12/28 11:46:16;;;;;;;16.52;6.20;;;;;;;6.96;69.81;95100.91;1796896;79;21059;-56
2020/12/28 11:48:46;;;;;;;15.45;5.03;;;;;;;6.88;70.29;95089.59;1796966;79;21422;-56
2020/12/28 11:51:14;;;;;;;34.30;6.05;;;;;;;6.80;70.79;95093.58;1780227;80;21056;-56
2020/12/28 11:53:42;;;;;;;21.80;9.80;;;;;;;6.73;71.53;95097.59;1796310;79;21076;-56
2020/12/28 11:56:13;;;;;;;11.03;6.70;;;;;;;6.72;71.62;95097.23;1765583;79;21071;-56
2020/12/28 11:58:44;;;;;;;9.80;5.62;;;;;;;6.73;72.11;95093.72;1779957;80;21056;-55
2020/12/28 12:01:14;;;;;;;10.18;6.30;;;;;;;6.77;71.79;95090.42;1796339;79;22210;-55
2020/12/28 12:06:21;;;;;;;41.30;8.85;;;;;;;6.80;72.45;95095.34;1888332;76;28128;-55